createdAt,value
2023-01-25T00:03:53.823Z,38.60
2023-01-25T00:09:24.073Z,49.00
2023-01-25T00:14:38.849Z,55.20
2023-01-25T00:19:59.964Z,62.20
2023-01-25T00:25:46.731Z,69.30
2023-01-25T00:31:03.196Z,50.60
2023-01-25T00:37:15.727Z,50.60
2023-01-25T00:43:10.890Z,61.90
2023-01-25T00:48:39.023Z,75.90
2023-01-25T00:53:54.839Z,71.00
2023-01-25T00:59:44.382Z,74.00
2023-01-25T01:05:36.606Z,86.30
2023-01-25T01:10:45.278Z,42.40
2023-01-25T01:16:14.182Z,71.50
2023-01-25T01:21:39.288Z,78.10
2023-01-25T01:27:21.697Z,82.40
2023-01-25T01:32:35.536Z,76.10
2023-01-25T01:38:12.981Z,85.20
2023-01-25T01:43:55.628Z,84.30
2023-01-25T01:49:26.916Z,74.10
2023-01-25T01:55:35.377Z,87.30
2023-01-25T02:01:20.874Z,98.60
2023-01-25T02:07:37.447Z,99.90
2023-01-25T02:13:02.393Z,82.40
2023-01-25T02:24:19.201Z,85.30
2023-01-25T02:29:58.229Z,94.00
2023-01-25T02:36:15.014Z,95.10
2023-01-25T02:42:38.746Z,83.60
2023-01-25T02:48:10.925Z,90.80
2023-01-25T02:53:33.691Z,99.80
2023-01-25T02:59:20.540Z,96.10
2023-01-25T03:04:42.286Z,117.10
2023-01-25T03:10:34.263Z,75.90
2023-01-25T03:15:42.871Z,80.50
2023-01-25T03:21:52.419Z,88.10
2023-01-25T03:27:11.315Z,76.70
2023-01-25T03:32:56.583Z,77.60
2023-01-25T03:38:43.137Z,85.00
2023-01-25T03:44:11.537Z,68.80
2023-01-25T03:49:28.041Z,71.50
2023-01-25T03:55:13.382Z,70.90
2023-01-25T04:00:38.728Z,70.90
2023-01-25T04:05:58.080Z,69.90
2023-01-25T04:11:06.125Z,54.10
2023-01-25T04:16:22.807Z,63.90
2023-01-25T04:21:25.903Z,72.60
2023-01-25T04:26:31.398Z,63.30
2023-01-25T04:31:34.395Z,68.80
2023-01-25T04:36:37.567Z,56.80
2023-01-25T04:42:18.888Z,55.10
2023-01-25T04:47:32.618Z,61.10
2023-01-25T04:52:35.882Z,65.50
2023-01-25T04:58:17.709Z,71.10
2023-01-25T05:03:38.244Z,70.20
2023-01-25T05:08:56.726Z,66.70
2023-01-25T05:13:59.943Z,68.70
2023-01-25T05:19:22.313Z,69.10
2023-01-25T05:24:43.396Z,76.70
2023-01-25T05:30:06.325Z,71.50
2023-01-25T05:35:35.417Z,85.60
2023-01-25T05:40:52.560Z,73.10
2023-01-25T05:46:21.482Z,65.40
2023-01-25T05:51:57.110Z,57.70
2023-01-25T05:57:42.748Z,81.40
2023-01-25T06:03:08.907Z,67.70
2023-01-25T06:08:32.381Z,70.00
2023-01-25T06:13:42.131Z,86.20
2023-01-25T06:18:51.151Z,57.20
2023-01-25T06:24:33.797Z,73.20
2023-01-25T06:29:42.288Z,65.00
2023-01-25T06:34:48.684Z,72.00
2023-01-25T06:39:57.366Z,70.40
2023-01-25T06:45:22.261Z,75.40
2023-01-25T06:50:32.465Z,80.40
2023-01-25T06:55:52.030Z,80.10
2023-01-25T07:01:27.324Z,78.00
2023-01-25T07:06:46.269Z,80.60
2023-01-25T07:11:58.034Z,93.00
2023-01-25T07:17:04.080Z,89.30
2023-01-25T07:22:19.920Z,96.60
2023-01-25T07:27:37.003Z,96.80
2023-01-25T07:32:40.112Z,101.60
2023-01-25T07:37:46.664Z,82.70
2023-01-25T07:42:56.433Z,104.00
2023-01-25T07:48:15.422Z,142.90
2023-01-25T07:53:30.222Z,148.20
2023-01-25T07:58:39.290Z,150.80
2023-01-25T08:03:44.250Z,94.20
2023-01-25T08:08:52.280Z,117.40
2023-01-25T08:13:57.822Z,102.80
2023-01-25T08:19:20.213Z,90.60
2023-01-25T08:24:25.966Z,161.00
2023-01-25T08:29:32.433Z,94.30
2023-01-25T08:34:52.446Z,116.90
2023-01-25T08:40:38.792Z,129.80
2023-01-25T08:46:18.158Z,167.70
2023-01-25T08:51:22.410Z,169.40
2023-01-25T08:56:25.690Z,133.70
2023-01-25T09:01:37.847Z,101.50
2023-01-25T09:07:21.581Z,119.40
2023-01-25T09:12:33.410Z,107.10
2023-01-25T09:18:08.183Z,118.50
2023-01-25T09:23:19.717Z,114.80
2023-01-25T09:28:38.745Z,111.70
2023-01-25T09:34:42.618Z,70.90
2023-01-25T09:39:51.837Z,105.50
2023-01-25T09:45:33.609Z,79.50
2023-01-25T09:51:25.218Z,57.80
2023-01-25T09:57:20.616Z,97.30
2023-01-25T10:03:35.289Z,95.10
2023-01-25T10:09:53.616Z,92.10
2023-01-25T10:15:34.650Z,130.00
2023-01-25T10:21:38.746Z,102.80
2023-01-25T10:27:02.200Z,121.80
2023-01-25T10:32:35.866Z,153.80
2023-01-25T10:37:59.086Z,146.30
2023-01-25T10:44:01.922Z,112.00
2023-01-25T10:50:01.039Z,133.20
2023-01-25T10:55:50.343Z,116.10
2023-01-25T11:01:07.281Z,128.60
2023-01-25T11:06:48.664Z,104.10
2023-01-25T11:11:59.142Z,100.00
2023-01-25T11:17:30.299Z,124.10
2023-01-25T11:22:37.041Z,95.80
2023-01-25T11:28:10.783Z,118.90
2023-01-25T11:33:52.539Z,400.00
2023-01-25T11:39:53.369Z,170.50
2023-01-25T11:46:18.638Z,102.80
2023-01-25T11:51:46.678Z,103.30
2023-01-25T11:57:10.868Z,115.20
2023-01-25T12:02:46.145Z,89.20
2023-01-25T12:08:33.241Z,218.60
2023-01-25T12:21:39.091Z,96.70
2023-01-25T12:28:03.372Z,405.60
2023-01-25T12:33:28.473Z,202.70
2023-01-25T12:38:59.087Z,121.20
2023-01-25T12:44:55.537Z,147.80
2023-01-25T12:50:33.270Z,129.80
2023-01-25T12:55:40.955Z,106.30
2023-01-25T13:01:49.107Z,104.00
2023-01-25T13:07:15.929Z,103.80
2023-01-25T13:12:23.923Z,99.20
2023-01-25T13:17:40.193Z,107.70
2023-01-25T13:23:33.341Z,99.90
2023-01-25T13:28:46.775Z,115.10
2023-01-25T13:34:03.219Z,112.10
2023-01-25T13:40:09.672Z,130.30
2023-01-25T13:45:21.456Z,121.20
2023-01-25T13:51:50.910Z,131.10
2023-01-25T13:57:12.801Z,141.40
2023-01-25T14:02:53.444Z,103.10
2023-01-25T14:08:17.360Z,170.30
2023-01-25T14:13:52.351Z,102.10
2023-01-25T14:19:32.084Z,260.60
2023-01-25T14:24:35.782Z,166.20
2023-01-25T14:29:44.825Z,151.70
2023-01-25T14:34:55.561Z,229.60
2023-01-25T14:40:12.063Z,146.10
2023-01-25T14:45:18.111Z,178.20
2023-01-25T14:50:32.479Z,196.40
2023-01-25T14:55:37.685Z,131.60
2023-01-25T15:00:41.176Z,181.10
2023-01-25T15:05:53.092Z,178.60
2023-01-25T15:11:38.896Z,120.70
2023-01-25T15:16:50.852Z,134.60
2023-01-25T15:22:27.071Z,128.10
2023-01-25T15:28:12.180Z,182.40
2023-01-25T15:33:44.354Z,179.00
2023-01-25T15:38:53.211Z,137.10
2023-01-25T15:44:47.460Z,172.40
2023-01-25T15:50:03.786Z,140.90
2023-01-25T15:55:32.494Z,154.10
2023-01-25T16:00:56.087Z,142.60
2023-01-25T16:06:49.499Z,151.10
2023-01-25T16:12:19.773Z,143.10
2023-01-25T16:18:09.613Z,159.80
2023-01-25T16:23:21.020Z,154.90
2023-01-25T16:28:49.296Z,103.10
2023-01-25T16:33:52.274Z,116.20
2023-01-25T16:39:46.244Z,115.80
2023-01-25T16:45:09.126Z,114.80
2023-01-25T16:50:35.686Z,88.40
2023-01-25T16:55:42.558Z,144.70
2023-01-25T17:00:51.581Z,130.70
2023-01-25T17:06:01.105Z,127.70
2023-01-25T17:12:24.295Z,119.00
2023-01-25T17:18:16.646Z,103.30
2023-01-25T17:23:19.767Z,199.00
2023-01-25T17:28:57.387Z,151.90
2023-01-25T17:34:22.032Z,114.50
2023-01-25T17:39:38.206Z,112.10
2023-01-25T17:45:01.566Z,113.40
2023-01-25T17:50:19.219Z,115.50
2023-01-25T17:55:57.901Z,103.40
2023-01-25T18:01:59.725Z,166.40
2023-01-25T18:07:05.483Z,96.40
2023-01-25T18:12:24.484Z,134.60
2023-01-25T18:18:18.082Z,82.10
2023-01-25T18:24:33.154Z,89.70
2023-01-25T18:30:17.265Z,158.00
2023-01-25T18:35:20.940Z,155.00
2023-01-25T18:40:31.206Z,163.50
2023-01-25T18:45:45.374Z,151.80
2023-01-25T18:50:51.711Z,140.40
2023-01-25T18:57:01.202Z,133.50
2023-01-25T19:02:16.866Z,135.80
2023-01-25T19:07:37.577Z,122.40
2023-01-25T19:12:49.679Z,151.00
2023-01-25T19:17:58.479Z,184.20
2023-01-25T19:23:25.565Z,312.10
2023-01-25T19:28:29.082Z,415.70
2023-01-25T19:33:45.003Z,397.20
2023-01-25T19:39:21.156Z,239.90
2023-01-25T19:44:54.995Z,186.00
2023-01-25T19:50:17.851Z,178.70
2023-01-25T19:55:31.861Z,201.50
2023-01-25T20:00:58.724Z,152.20
2023-01-25T20:06:12.361Z,208.80
2023-01-25T20:12:03.919Z,165.30
2023-01-25T20:17:51.634Z,116.00
2023-01-25T20:23:22.950Z,114.60
2023-01-25T20:29:14.045Z,145.60
2023-01-25T20:35:11.093Z,137.90
2023-01-25T20:40:59.598Z,117.60
2023-01-25T20:46:26.964Z,121.10
2023-01-25T20:52:17.790Z,147.10
2023-01-25T20:57:33.453Z,154.80
2023-01-25T21:03:30.633Z,179.30
2023-01-25T21:08:37.111Z,165.40
2023-01-25T21:13:46.812Z,148.60
2023-01-25T21:18:57.717Z,122.20
2023-01-25T21:24:14.541Z,174.50
2023-01-25T21:29:38.960Z,137.60
2023-01-25T21:34:49.294Z,157.60
2023-01-25T21:40:30.373Z,154.30
2023-01-25T21:46:25.409Z,158.70
2023-01-25T21:51:58.274Z,121.60
2023-01-25T21:57:15.297Z,243.20
2023-01-25T22:02:24.233Z,139.10
2023-01-25T22:08:18.291Z,112.70
2023-01-25T22:14:28.986Z,134.30
2023-01-25T22:20:12.452Z,130.80
2023-01-25T22:26:12.942Z,89.50
2023-01-25T22:31:58.384Z,120.80
2023-01-25T22:56:46.541Z,128.70
2023-01-25T23:03:02.583Z,110.20
2023-01-25T23:08:39.258Z,95.30
2023-01-25T23:14:31.756Z,141.20
2023-01-25T23:20:54.680Z,131.50
2023-01-25T23:26:12.105Z,132.10
2023-01-25T23:32:16.981Z,122.50
2023-01-25T23:37:38.536Z,139.20
2023-01-25T23:43:05.588Z,122.60
2023-01-25T23:48:55.265Z,140.40
2023-01-25T23:54:37.464Z,136.30
